sensor_id;sensor_type;location;lat;lon;timestamp;P1;durP1;ratioP1;P2;durP2;ratioP2
12792;SDS011;6460;42.684;23.260;2023-07-30T00:00:56;2.40;;;2.10;;
12792;SDS011;6460;42.684;23.260;2023-07-30T00:03:23;3.77;;;2.60;;
12792;SDS011;6460;42.684;23.260;2023-07-30T00:05:51;3.37;;;2.43;;
12792;SDS011;6460;42.684;23.260;2023-07-30T00:08:20;3.23;;;2.30;;
12792;SDS011;6460;42.684;23.260;2023-07-30T00:10:48;2.93;;;2.67;;
12792;SDS011;6460;42.684;23.260;2023-07-30T00:13:15;2.30;;;2.10;;
12792;SDS011;6460;42.684;23.260;2023-07-30T00:15:44;2.90;;;2.27;;
12792;SDS011;6460;42.684;23.260;2023-07-30T00:18:13;2.50;;;2.30;;
12792;SDS011;6460;42.684;23.260;2023-07-30T00:20:40;2.27;;;2.07;;
12792;SDS011;6460;42.684;23.260;2023-07-30T00:23:08;2.50;;;2.30;;
12792;SDS011;6460;42.684;23.260;2023-07-30T00:25:35;2.70;;;2.20;;
12792;SDS011;6460;42.684;23.260;2023-07-30T00:28:03;2.87;;;2.43;;
12792;SDS011;6460;42.684;23.260;2023-07-30T00:30:31;2.40;;;2.20;;
12792;SDS011;6460;42.684;23.260;2023-07-30T00:32:59;3.20;;;2.40;;
12792;SDS011;6460;42.684;23.260;2023-07-30T00:35:27;3.07;;;2.40;;
12792;SDS011;6460;42.684;23.260;2023-07-30T00:37:54;2.70;;;2.30;;
12792;SDS011;6460;42.684;23.260;2023-07-30T00:40:21;2.70;;;2.30;;
12792;SDS011;6460;42.684;23.260;2023-07-30T00:42:49;2.57;;;2.30;;
12792;SDS011;6460;42.684;23.260;2023-07-30T00:45:17;2.90;;;2.33;;
12792;SDS011;6460;42.684;23.260;2023-07-30T00:47:44;2.60;;;2.40;;
12792;SDS011;6460;42.684;23.260;2023-07-30T00:50:14;2.73;;;2.23;;
12792;SDS011;6460;42.684;23.260;2023-07-30T00:52:43;2.93;;;2.40;;
12792;SDS011;6460;42.684;23.260;2023-07-30T00:55:11;2.47;;;2.27;;
12792;SDS011;6460;42.684;23.260;2023-07-30T00:57:39;2.80;;;2.60;;
12792;SDS011;6460;42.684;23.260;2023-07-30T01:00:09;2.70;;;2.27;;
12792;SDS011;6460;42.684;23.260;2023-07-30T01:02:37;2.57;;;2.37;;
12792;SDS011;6460;42.684;23.260;2023-07-30T01:05:04;2.73;;;2.10;;
12792;SDS011;6460;42.684;23.260;2023-07-30T01:07:34;2.90;;;2.60;;
12792;SDS011;6460;42.684;23.260;2023-07-30T01:10:01;2.50;;;2.23;;
12792;SDS011;6460;42.684;23.260;2023-07-30T01:12:30;2.33;;;2.07;;
12792;SDS011;6460;42.684;23.260;2023-07-30T01:14:57;2.80;;;2.40;;
12792;SDS011;6460;42.684;23.260;2023-07-30T01:17:26;2.57;;;2.37;;
12792;SDS011;6460;42.684;23.260;2023-07-30T01:19:54;4.93;;;3.40;;
12792;SDS011;6460;42.684;23.260;2023-07-30T01:22:23;3.80;;;2.80;;
12792;SDS011;6460;42.684;23.260;2023-07-30T01:24:51;3.90;;;3.00;;
12792;SDS011;6460;42.684;23.260;2023-07-30T01:27:21;4.90;;;3.70;;
12792;SDS011;6460;42.684;23.260;2023-07-30T01:29:51;4.40;;;3.60;;
12792;SDS011;6460;42.684;23.260;2023-07-30T01:32:23;4.27;;;3.50;;
12792;SDS011;6460;42.684;23.260;2023-07-30T01:34:52;4.13;;;3.23;;
12792;SDS011;6460;42.684;23.260;2023-07-30T01:37:20;5.30;;;4.07;;
12792;SDS011;6460;42.684;23.260;2023-07-30T01:39:51;6.37;;;3.73;;
12792;SDS011;6460;42.684;23.260;2023-07-30T01:42:19;5.23;;;3.83;;
12792;SDS011;6460;42.684;23.260;2023-07-30T01:44:46;3.57;;;3.27;;
12792;SDS011;6460;42.684;23.260;2023-07-30T01:47:13;5.50;;;3.20;;
12792;SDS011;6460;42.684;23.260;2023-07-30T01:49:41;4.20;;;3.37;;
12792;SDS011;6460;42.684;23.260;2023-07-30T01:52:08;4.50;;;3.20;;
12792;SDS011;6460;42.684;23.260;2023-07-30T01:54:36;3.73;;;3.20;;
12792;SDS011;6460;42.684;23.260;2023-07-30T01:57:05;4.77;;;3.40;;
12792;SDS011;6460;42.684;23.260;2023-07-30T01:59:33;4.03;;;3.27;;
12792;SDS011;6460;42.684;23.260;2023-07-30T02:02:00;5.40;;;3.80;;
12792;SDS011;6460;42.684;23.260;2023-07-30T02:04:27;3.77;;;3.33;;
12792;SDS011;6460;42.684;23.260;2023-07-30T02:06:55;5.03;;;3.40;;
12792;SDS011;6460;42.684;23.260;2023-07-30T02:09:22;3.80;;;3.30;;
12792;SDS011;6460;42.684;23.260;2023-07-30T02:11:50;3.07;;;2.77;;
12792;SDS011;6460;42.684;23.260;2023-07-30T02:14:19;3.40;;;3.10;;
12792;SDS011;6460;42.684;23.260;2023-07-30T02:16:46;3.77;;;3.07;;
12792;SDS011;6460;42.684;23.260;2023-07-30T02:19:13;3.20;;;2.60;;
12792;SDS011;6460;42.684;23.260;2023-07-30T02:21:41;3.10;;;2.80;;
12792;SDS011;6460;42.684;23.260;2023-07-30T02:24:09;3.03;;;2.73;;
12792;SDS011;6460;42.684;23.260;2023-07-30T02:26:37;3.50;;;3.20;;
12792;SDS011;6460;42.684;23.260;2023-07-30T02:29:04;3.20;;;2.90;;
12792;SDS011;6460;42.684;23.260;2023-07-30T02:31:33;3.83;;;2.90;;
12792;SDS011;6460;42.684;23.260;2023-07-30T02:34:01;3.90;;;3.07;;
12792;SDS011;6460;42.684;23.260;2023-07-30T02:36:28;7.43;;;5.53;;
12792;SDS011;6460;42.684;23.260;2023-07-30T02:38:55;8.53;;;6.17;;
12792;SDS011;6460;42.684;23.260;2023-07-30T02:41:23;6.60;;;4.00;;
12792;SDS011;6460;42.684;23.260;2023-07-30T02:43:50;4.00;;;3.33;;
12792;SDS011;6460;42.684;23.260;2023-07-30T02:46:17;3.23;;;2.93;;
12792;SDS011;6460;42.684;23.260;2023-07-30T02:48:46;3.60;;;3.10;;
12792;SDS011;6460;42.684;23.260;2023-07-30T02:51:13;3.60;;;3.30;;
12792;SDS011;6460;42.684;23.260;2023-07-30T02:53:42;4.73;;;3.90;;
12792;SDS011;6460;42.684;23.260;2023-07-30T02:56:10;3.20;;;2.90;;
12792;SDS011;6460;42.684;23.260;2023-07-30T02:58:38;3.33;;;3.00;;
12792;SDS011;6460;42.684;23.260;2023-07-30T03:01:06;3.40;;;3.10;;
12792;SDS011;6460;42.684;23.260;2023-07-30T03:03:33;3.50;;;3.07;;
12792;SDS011;6460;42.684;23.260;2023-07-30T03:06:02;3.07;;;2.80;;
12792;SDS011;6460;42.684;23.260;2023-07-30T03:08:30;4.10;;;3.07;;
12792;SDS011;6460;42.684;23.260;2023-07-30T03:10:58;3.23;;;2.90;;
12792;SDS011;6460;42.684;23.260;2023-07-30T03:13:25;3.53;;;2.87;;
12792;SDS011;6460;42.684;23.260;2023-07-30T03:15:53;3.53;;;2.97;;
12792;SDS011;6460;42.684;23.260;2023-07-30T03:18:20;2.63;;;2.43;;
12792;SDS011;6460;42.684;23.260;2023-07-30T03:20:47;4.43;;;2.70;;
12792;SDS011;6460;42.684;23.260;2023-07-30T03:23:16;3.27;;;2.90;;
12792;SDS011;6460;42.684;23.260;2023-07-30T03:25:44;3.27;;;2.67;;
12792;SDS011;6460;42.684;23.260;2023-07-30T03:28:11;3.53;;;3.13;;
12792;SDS011;6460;42.684;23.260;2023-07-30T03:30:39;4.53;;;2.90;;
12792;SDS011;6460;42.684;23.260;2023-07-30T03:33:06;3.80;;;2.90;;
12792;SDS011;6460;42.684;23.260;2023-07-30T03:35:33;3.23;;;2.57;;
12792;SDS011;6460;42.684;23.260;2023-07-30T03:38:01;5.50;;;2.60;;
12792;SDS011;6460;42.684;23.260;2023-07-30T03:40:30;3.40;;;3.10;;
12792;SDS011;6460;42.684;23.260;2023-07-30T03:42:57;4.93;;;3.10;;
12792;SDS011;6460;42.684;23.260;2023-07-30T03:45:24;3.33;;;3.03;;
12792;SDS011;6460;42.684;23.260;2023-07-30T03:47:52;3.73;;;3.10;;
12792;SDS011;6460;42.684;23.260;2023-07-30T03:50:19;6.10;;;3.67;;
12792;SDS011;6460;42.684;23.260;2023-07-30T03:52:46;6.17;;;5.03;;
12792;SDS011;6460;42.684;23.260;2023-07-30T03:55:14;11.47;;;7.20;;
12792;SDS011;6460;42.684;23.260;2023-07-30T03:57:43;13.23;;;7.57;;
12792;SDS011;6460;42.684;23.260;2023-07-30T04:00:11;9.40;;;6.40;;
12792;SDS011;6460;42.684;23.260;2023-07-30T04:02:39;10.47;;;6.20;;
12792;SDS011;6460;42.684;23.260;2023-07-30T04:05:06;8.20;;;5.90;;
12792;SDS011;6460;42.684;23.260;2023-07-30T04:07:34;6.27;;;5.20;;
12792;SDS011;6460;42.684;23.260;2023-07-30T04:10:01;5.27;;;4.50;;
12792;SDS011;6460;42.684;23.260;2023-07-30T04:12:29;4.90;;;4.00;;
12792;SDS011;6460;42.684;23.260;2023-07-30T04:14:57;7.00;;;4.57;;
12792;SDS011;6460;42.684;23.260;2023-07-30T04:17:25;6.77;;;4.20;;
12792;SDS011;6460;42.684;23.260;2023-07-30T04:19:52;5.93;;;4.20;;
12792;SDS011;6460;42.684;23.260;2023-07-30T04:22:19;6.43;;;4.13;;
12792;SDS011;6460;42.684;23.260;2023-07-30T04:24:47;7.03;;;4.80;;
12792;SDS011;6460;42.684;23.260;2023-07-30T04:27:15;5.80;;;4.20;;
12792;SDS011;6460;42.684;23.260;2023-07-30T04:29:42;6.13;;;4.40;;
12792;SDS011;6460;42.684;23.260;2023-07-30T04:32:11;6.90;;;4.77;;
12792;SDS011;6460;42.684;23.260;2023-07-30T04:34:39;5.20;;;4.70;;
12792;SDS011;6460;42.684;23.260;2023-07-30T04:37:06;5.50;;;4.60;;
12792;SDS011;6460;42.684;23.260;2023-07-30T04:39:34;5.87;;;4.33;;
12792;SDS011;6460;42.684;23.260;2023-07-30T04:42:02;5.57;;;4.33;;
12792;SDS011;6460;42.684;23.260;2023-07-30T04:44:30;5.30;;;4.20;;
12792;SDS011;6460;42.684;23.260;2023-07-30T04:46:57;9.23;;;4.17;;
12792;SDS011;6460;42.684;23.260;2023-07-30T04:49:26;4.37;;;3.73;;
12792;SDS011;6460;42.684;23.260;2023-07-30T04:51:54;5.57;;;3.80;;
12792;SDS011;6460;42.684;23.260;2023-07-30T04:54:21;4.50;;;3.20;;
12792;SDS011;6460;42.684;23.260;2023-07-30T04:56:49;5.30;;;4.10;;
12792;SDS011;6460;42.684;23.260;2023-07-30T04:59:16;4.97;;;4.07;;
12792;SDS011;6460;42.684;23.260;2023-07-30T05:01:43;4.73;;;3.53;;
12792;SDS011;6460;42.684;23.260;2023-07-30T05:04:11;4.80;;;3.83;;
12792;SDS011;6460;42.684;23.260;2023-07-30T05:06:39;5.83;;;4.13;;
12792;SDS011;6460;42.684;23.260;2023-07-30T05:09:25;5.03;;;3.80;;
12792;SDS011;6460;42.684;23.260;2023-07-30T05:11:52;4.57;;;4.17;;
12792;SDS011;6460;42.684;23.260;2023-07-30T05:14:19;5.77;;;4.57;;
12792;SDS011;6460;42.684;23.260;2023-07-30T05:16:47;6.20;;;4.13;;
12792;SDS011;6460;42.684;23.260;2023-07-30T05:19:15;5.37;;;4.13;;
12792;SDS011;6460;42.684;23.260;2023-07-30T05:21:44;4.23;;;3.80;;
12792;SDS011;6460;42.684;23.260;2023-07-30T05:24:12;4.63;;;4.00;;
12792;SDS011;6460;42.684;23.260;2023-07-30T05:26:39;5.43;;;3.77;;
12792;SDS011;6460;42.684;23.260;2023-07-30T05:29:07;4.47;;;4.03;;
12792;SDS011;6460;42.684;23.260;2023-07-30T05:31:34;5.17;;;3.90;;
12792;SDS011;6460;42.684;23.260;2023-07-30T05:34:01;4.20;;;3.70;;
12792;SDS011;6460;42.684;23.260;2023-07-30T05:36:29;4.30;;;3.90;;
12792;SDS011;6460;42.684;23.260;2023-07-30T05:38:58;4.03;;;3.43;;
12792;SDS011;6460;42.684;23.260;2023-07-30T05:41:25;4.30;;;3.90;;
12792;SDS011;6460;42.684;23.260;2023-07-30T05:43:52;4.87;;;4.17;;
12792;SDS011;6460;42.684;23.260;2023-07-30T05:46:20;3.80;;;3.40;;
12792;SDS011;6460;42.684;23.260;2023-07-30T05:48:47;4.30;;;3.63;;
12792;SDS011;6460;42.684;23.260;2023-07-30T05:51:14;5.20;;;3.70;;
12792;SDS011;6460;42.684;23.260;2023-07-30T05:53:42;4.07;;;3.47;;
12792;SDS011;6460;42.684;23.260;2023-07-30T05:56:11;6.10;;;4.00;;
12792;SDS011;6460;42.684;23.260;2023-07-30T05:58:39;4.27;;;3.87;;
12792;SDS011;6460;42.684;23.260;2023-07-30T06:01:07;4.80;;;4.00;;
12792;SDS011;6460;42.684;23.260;2023-07-30T06:03:34;4.80;;;4.03;;
12792;SDS011;6460;42.684;23.260;2023-07-30T06:06:02;3.83;;;3.40;;
12792;SDS011;6460;42.684;23.260;2023-07-30T06:08:29;5.10;;;3.67;;
12792;SDS011;6460;42.684;23.260;2023-07-30T06:11:00;7.40;;;3.77;;
12792;SDS011;6460;42.684;23.260;2023-07-30T06:13:29;4.40;;;3.83;;
12792;SDS011;6460;42.684;23.260;2023-07-30T06:15:57;4.57;;;3.43;;
12792;SDS011;6460;42.684;23.260;2023-07-30T06:18:24;4.17;;;3.77;;
12792;SDS011;6460;42.684;23.260;2023-07-30T06:20:51;3.83;;;3.53;;
12792;SDS011;6460;42.684;23.260;2023-07-30T06:23:19;5.57;;;3.53;;
12792;SDS011;6460;42.684;23.260;2023-07-30T06:25:46;3.60;;;3.30;;
12792;SDS011;6460;42.684;23.260;2023-07-30T06:28:14;4.57;;;3.60;;
12792;SDS011;6460;42.684;23.260;2023-07-30T06:30:42;3.77;;;3.47;;
12792;SDS011;6460;42.684;23.260;2023-07-30T06:33:10;5.30;;;3.77;;
12792;SDS011;6460;42.684;23.260;2023-07-30T06:35:37;4.37;;;3.83;;
12792;SDS011;6460;42.684;23.260;2023-07-30T06:38:05;3.97;;;3.57;;
12792;SDS011;6460;42.684;23.260;2023-07-30T06:40:35;3.63;;;3.33;;
12792;SDS011;6460;42.684;23.260;2023-07-30T06:43:02;4.30;;;3.40;;
12792;SDS011;6460;42.684;23.260;2023-07-30T06:45:29;3.60;;;3.30;;
12792;SDS011;6460;42.684;23.260;2023-07-30T06:47:58;3.83;;;3.43;;
12792;SDS011;6460;42.684;23.260;2023-07-30T06:50:26;3.60;;;3.30;;
12792;SDS011;6460;42.684;23.260;2023-07-30T06:52:53;3.50;;;3.20;;
12792;SDS011;6460;42.684;23.260;2023-07-30T06:55:20;3.67;;;3.30;;
12792;SDS011;6460;42.684;23.260;2023-07-30T06:57:48;5.20;;;3.20;;
12792;SDS011;6460;42.684;23.260;2023-07-30T07:00:15;3.60;;;3.30;;
12792;SDS011;6460;42.684;23.260;2023-07-30T07:02:47;4.03;;;3.13;;
12792;SDS011;6460;42.684;23.260;2023-07-30T07:05:16;3.93;;;3.03;;
12792;SDS011;6460;42.684;23.260;2023-07-30T07:07:44;3.53;;;3.23;;
12792;SDS011;6460;42.684;23.260;2023-07-30T07:10:12;5.93;;;3.20;;
12792;SDS011;6460;42.684;23.260;2023-07-30T07:12:40;4.00;;;3.40;;
12792;SDS011;6460;42.684;23.260;2023-07-30T07:15:07;4.10;;;3.33;;
12792;SDS011;6460;42.684;23.260;2023-07-30T07:17:35;5.30;;;3.80;;
12792;SDS011;6460;42.684;23.260;2023-07-30T07:20:03;5.50;;;4.50;;
12792;SDS011;6460;42.684;23.260;2023-07-30T07:22:33;3.63;;;3.23;;
12792;SDS011;6460;42.684;23.260;2023-07-30T07:25:01;3.60;;;3.30;;
12792;SDS011;6460;42.684;23.260;2023-07-30T07:27:29;3.60;;;3.30;;
12792;SDS011;6460;42.684;23.260;2023-07-30T07:29:56;4.63;;;3.57;;
12792;SDS011;6460;42.684;23.260;2023-07-30T07:32:25;3.97;;;3.23;;
12792;SDS011;6460;42.684;23.260;2023-07-30T07:34:52;3.77;;;3.20;;
12792;SDS011;6460;42.684;23.260;2023-07-30T07:37:19;5.00;;;3.43;;
12792;SDS011;6460;42.684;23.260;2023-07-30T07:39:48;4.57;;;3.27;;
12792;SDS011;6460;42.684;23.260;2023-07-30T07:42:15;3.50;;;3.13;;
12792;SDS011;6460;42.684;23.260;2023-07-30T07:44:43;3.50;;;3.20;;
12792;SDS011;6460;42.684;23.260;2023-07-30T07:47:11;4.27;;;3.63;;
12792;SDS011;6460;42.684;23.260;2023-07-30T07:49:37;5.03;;;3.57;;
12792;SDS011;6460;42.684;23.260;2023-07-30T07:52:05;3.50;;;2.90;;
12792;SDS011;6460;42.684;23.260;2023-07-30T07:54:33;3.77;;;3.33;;
12792;SDS011;6460;42.684;23.260;2023-07-30T07:57:03;4.53;;;3.90;;
12792;SDS011;6460;42.684;23.260;2023-07-30T07:59:30;3.60;;;3.30;;
12792;SDS011;6460;42.684;23.260;2023-07-30T08:01:58;3.37;;;3.07;;
12792;SDS011;6460;42.684;23.260;2023-07-30T08:04:25;4.20;;;3.80;;
12792;SDS011;6460;42.684;23.260;2023-07-30T08:06:53;3.90;;;3.47;;
12792;SDS011;6460;42.684;23.260;2023-07-30T08:09:20;4.23;;;3.83;;
12792;SDS011;6460;42.684;23.260;2023-07-30T08:11:48;3.80;;;3.40;;
12792;SDS011;6460;42.684;23.260;2023-07-30T08:14:17;4.10;;;3.70;;
12792;SDS011;6460;42.684;23.260;2023-07-30T08:16:44;3.50;;;3.20;;
12792;SDS011;6460;42.684;23.260;2023-07-30T08:19:11;3.77;;;3.40;;
12792;SDS011;6460;42.684;23.260;2023-07-30T08:21:39;4.07;;;3.67;;
12792;SDS011;6460;42.684;23.260;2023-07-30T08:24:06;4.00;;;3.40;;
12792;SDS011;6460;42.684;23.260;2023-07-30T08:26:33;5.37;;;4.03;;
12792;SDS011;6460;42.684;23.260;2023-07-30T08:29:01;4.17;;;3.70;;
12792;SDS011;6460;42.684;23.260;2023-07-30T08:31:30;4.20;;;3.80;;
12792;SDS011;6460;42.684;23.260;2023-07-30T08:33:57;4.53;;;3.53;;
12792;SDS011;6460;42.684;23.260;2023-07-30T08:36:24;3.90;;;3.50;;
12792;SDS011;6460;42.684;23.260;2023-07-30T08:38:51;4.43;;;3.67;;
12792;SDS011;6460;42.684;23.260;2023-07-30T08:41:19;3.80;;;3.50;;
12792;SDS011;6460;42.684;23.260;2023-07-30T08:43:46;3.67;;;3.37;;
12792;SDS011;6460;42.684;23.260;2023-07-30T08:46:14;3.90;;;3.50;;
12792;SDS011;6460;42.684;23.260;2023-07-30T08:48:43;3.67;;;3.37;;
12792;SDS011;6460;42.684;23.260;2023-07-30T08:51:11;3.80;;;3.50;;
12792;SDS011;6460;42.684;23.260;2023-07-30T08:53:39;3.87;;;3.57;;
12792;SDS011;6460;42.684;23.260;2023-07-30T08:56:09;4.43;;;3.37;;
12792;SDS011;6460;42.684;23.260;2023-07-30T08:58:37;4.00;;;3.60;;
12792;SDS011;6460;42.684;23.260;2023-07-30T09:01:05;3.83;;;3.40;;
12792;SDS011;6460;42.684;23.260;2023-07-30T09:03:36;3.60;;;3.30;;
12792;SDS011;6460;42.684;23.260;2023-07-30T09:06:07;3.57;;;3.27;;
12792;SDS011;6460;42.684;23.260;2023-07-30T09:08:34;3.70;;;3.40;;
12792;SDS011;6460;42.684;23.260;2023-07-30T09:11:08;4.30;;;3.50;;
12792;SDS011;6460;42.684;23.260;2023-07-30T09:13:36;4.03;;;3.70;;
12792;SDS011;6460;42.684;23.260;2023-07-30T09:16:08;4.57;;;3.57;;
12792;SDS011;6460;42.684;23.260;2023-07-30T09:18:40;3.77;;;3.43;;
12792;SDS011;6460;42.684;23.260;2023-07-30T09:21:11;3.50;;;3.20;;
12792;SDS011;6460;42.684;23.260;2023-07-30T09:23:39;4.17;;;3.03;;
12792;SDS011;6460;42.684;23.260;2023-07-30T09:26:07;5.40;;;3.73;;
12792;SDS011;6460;42.684;23.260;2023-07-30T09:28:35;5.17;;;3.50;;
12792;SDS011;6460;42.684;23.260;2023-07-30T09:31:03;5.80;;;3.20;;
12792;SDS011;6460;42.684;23.260;2023-07-30T09:33:31;3.63;;;3.33;;
12792;SDS011;6460;42.684;23.260;2023-07-30T09:36:00;3.10;;;2.80;;
12792;SDS011;6460;42.684;23.260;2023-07-30T09:38:30;5.63;;;3.10;;
12792;SDS011;6460;42.684;23.260;2023-07-30T09:41:00;3.97;;;3.57;;
12792;SDS011;6460;42.684;23.260;2023-07-30T09:43:28;3.47;;;3.17;;
12792;SDS011;6460;42.684;23.260;2023-07-30T09:46:00;3.70;;;3.40;;
12792;SDS011;6460;42.684;23.260;2023-07-30T09:48:29;3.60;;;3.30;;
12792;SDS011;6460;42.684;23.260;2023-07-30T09:50:58;4.23;;;3.40;;
12792;SDS011;6460;42.684;23.260;2023-07-30T09:53:27;3.93;;;3.53;;
12792;SDS011;6460;42.684;23.260;2023-07-30T09:55:59;4.10;;;3.70;;
12792;SDS011;6460;42.684;23.260;2023-07-30T09:58:28;4.63;;;3.37;;
12792;SDS011;6460;42.684;23.260;2023-07-30T10:00:55;4.10;;;3.70;;
12792;SDS011;6460;42.684;23.260;2023-07-30T10:03:24;3.60;;;3.30;;
12792;SDS011;6460;42.684;23.260;2023-07-30T10:05:53;3.97;;;3.67;;
12792;SDS011;6460;42.684;23.260;2023-07-30T10:08:26;4.17;;;3.77;;
12792;SDS011;6460;42.684;23.260;2023-07-30T10:11:01;4.23;;;3.83;;
12792;SDS011;6460;42.684;23.260;2023-07-30T10:13:32;3.93;;;3.43;;
12792;SDS011;6460;42.684;23.260;2023-07-30T10:15:59;3.90;;;3.50;;
12792;SDS011;6460;42.684;23.260;2023-07-30T10:18:32;4.00;;;3.70;;
12792;SDS011;6460;42.684;23.260;2023-07-30T10:21:04;3.73;;;3.43;;
12792;SDS011;6460;42.684;23.260;2023-07-30T10:23:36;4.60;;;4.20;;
12792;SDS011;6460;42.684;23.260;2023-07-30T10:26:12;5.03;;;3.83;;
12792;SDS011;6460;42.684;23.260;2023-07-30T10:28:40;4.73;;;3.87;;
12792;SDS011;6460;42.684;23.260;2023-07-30T10:31:09;4.07;;;3.73;;
12792;SDS011;6460;42.684;23.260;2023-07-30T10:33:44;4.10;;;3.80;;
12792;SDS011;6460;42.684;23.260;2023-07-30T10:36:13;4.57;;;4.17;;
12792;SDS011;6460;42.684;23.260;2023-07-30T10:38:45;3.80;;;3.50;;
12792;SDS011;6460;42.684;23.260;2023-07-30T10:41:13;3.67;;;3.37;;
12792;SDS011;6460;42.684;23.260;2023-07-30T10:43:42;5.53;;;3.57;;
12792;SDS011;6460;42.684;23.260;2023-07-30T10:46:10;3.67;;;3.37;;
12792;SDS011;6460;42.684;23.260;2023-07-30T10:48:39;5.53;;;5.03;;
12792;SDS011;6460;42.684;23.260;2023-07-30T10:51:08;4.27;;;3.87;;
12792;SDS011;6460;42.684;23.260;2023-07-30T10:53:36;3.73;;;3.43;;
12792;SDS011;6460;42.684;23.260;2023-07-30T10:56:06;4.43;;;4.03;;
12792;SDS011;6460;42.684;23.260;2023-07-30T10:58:34;4.73;;;3.90;;
12792;SDS011;6460;42.684;23.260;2023-07-30T11:01:02;9.00;;;3.80;;
12792;SDS011;6460;42.684;23.260;2023-07-30T11:03:30;5.13;;;4.33;;
12792;SDS011;6460;42.684;23.260;2023-07-30T11:05:58;5.30;;;3.75;;
12792;SDS011;6460;42.684;23.260;2023-07-30T11:08:32;4.47;;;3.83;;
12792;SDS011;6460;42.684;23.260;2023-07-30T11:11:00;4.30;;;3.90;;
12792;SDS011;6460;42.684;23.260;2023-07-30T11:13:29;4.53;;;3.70;;
12792;SDS011;6460;42.684;23.260;2023-07-30T11:16:01;4.47;;;4.07;;
12792;SDS011;6460;42.684;23.260;2023-07-30T11:18:30;3.60;;;3.30;;
12792;SDS011;6460;42.684;23.260;2023-07-30T11:21:02;4.23;;;3.83;;
12792;SDS011;6460;42.684;23.260;2023-07-30T11:23:30;6.13;;;4.30;;
12792;SDS011;6460;42.684;23.260;2023-07-30T11:26:00;4.72;;;4.22;;
12792;SDS011;6460;42.684;23.260;2023-07-30T11:28:29;4.40;;;4.00;;
12792;SDS011;6460;42.684;23.260;2023-07-30T11:30:58;4.60;;;4.20;;
12792;SDS011;6460;42.684;23.260;2023-07-30T11:33:27;4.20;;;3.90;;
12792;SDS011;6460;42.684;23.260;2023-07-30T11:35:55;4.80;;;4.37;;
12792;SDS011;6460;42.684;23.260;2023-07-30T11:38:23;4.77;;;4.23;;
12792;SDS011;6460;42.684;23.260;2023-07-30T11:40:51;4.43;;;4.10;;
12792;SDS011;6460;42.684;23.260;2023-07-30T11:43:20;4.17;;;3.87;;
12792;SDS011;6460;42.684;23.260;2023-07-30T11:45:49;4.50;;;4.10;;
12792;SDS011;6460;42.684;23.260;2023-07-30T11:48:32;4.13;;;3.80;;
12792;SDS011;6460;42.684;23.260;2023-07-30T11:51:00;5.97;;;3.80;;
12792;SDS011;6460;42.684;23.260;2023-07-30T11:56:17;4.53;;;4.13;;
12792;SDS011;6460;42.684;23.260;2023-07-30T11:58:46;4.45;;;4.13;;
12792;SDS011;6460;42.684;23.260;2023-07-30T12:01:17;4.40;;;4.00;;
12792;SDS011;6460;42.684;23.260;2023-07-30T12:03:45;4.53;;;4.13;;
12792;SDS011;6460;42.684;23.260;2023-07-30T12:06:13;4.60;;;4.20;;
12792;SDS011;6460;42.684;23.260;2023-07-30T12:08:40;5.43;;;4.97;;
12792;SDS011;6460;42.684;23.260;2023-07-30T12:11:08;4.70;;;4.30;;
12792;SDS011;6460;42.684;23.260;2023-07-30T12:13:42;4.70;;;4.30;;
12792;SDS011;6460;42.684;23.260;2023-07-30T12:16:11;4.53;;;4.13;;
12792;SDS011;6460;42.684;23.260;2023-07-30T12:18:41;4.50;;;4.10;;
12792;SDS011;6460;42.684;23.260;2023-07-30T12:21:08;4.90;;;4.43;;
12792;SDS011;6460;42.684;23.260;2023-07-30T12:23:36;5.05;;;4.55;;
12792;SDS011;6460;42.684;23.260;2023-07-30T12:26:04;4.97;;;4.57;;
12792;SDS011;6460;42.684;23.260;2023-07-30T12:28:32;4.70;;;4.30;;
12792;SDS011;6460;42.684;23.260;2023-07-30T12:31:00;4.80;;;4.40;;
12792;SDS011;6460;42.684;23.260;2023-07-30T12:33:28;4.63;;;4.23;;
12792;SDS011;6460;42.684;23.260;2023-07-30T12:35:57;4.88;;;4.35;;
12792;SDS011;6460;42.684;23.260;2023-07-30T12:38:24;4.78;;;4.38;;
12792;SDS011;6460;42.684;23.260;2023-07-30T12:40:51;4.70;;;4.20;;
12792;SDS011;6460;42.684;23.260;2023-07-30T12:43:19;4.65;;;4.25;;
12792;SDS011;6460;42.684;23.260;2023-07-30T12:45:47;4.50;;;4.10;;
12792;SDS011;6460;42.684;23.260;2023-07-30T12:48:14;4.50;;;4.10;;
12792;SDS011;6460;42.684;23.260;2023-07-30T12:50:41;4.63;;;4.23;;
12792;SDS011;6460;42.684;23.260;2023-07-30T12:53:10;4.65;;;4.22;;
12792;SDS011;6460;42.684;23.260;2023-07-30T12:55:38;4.82;;;4.40;;
12792;SDS011;6460;42.684;23.260;2023-07-30T12:58:05;4.77;;;4.47;;
12792;SDS011;6460;42.684;23.260;2023-07-30T13:00:33;4.53;;;4.23;;
12792;SDS011;6460;42.684;23.260;2023-07-30T13:03:01;4.67;;;4.27;;
12792;SDS011;6460;42.684;23.260;2023-07-30T13:05:28;5.03;;;4.40;;
12792;SDS011;6460;42.684;23.260;2023-07-30T13:07:56;7.37;;;4.50;;
12792;SDS011;6460;42.684;23.260;2023-07-30T13:10:24;5.57;;;4.57;;
12792;SDS011;6460;42.684;23.260;2023-07-30T13:12:52;5.50;;;4.40;;
12792;SDS011;6460;42.684;23.260;2023-07-30T13:15:19;5.10;;;4.70;;
12792;SDS011;6460;42.684;23.260;2023-07-30T13:17:47;5.17;;;4.70;;
12792;SDS011;6460;42.684;23.260;2023-07-30T13:20:14;4.70;;;4.30;;
12792;SDS011;6460;42.684;23.260;2023-07-30T13:22:42;5.03;;;4.53;;
12792;SDS011;6460;42.684;23.260;2023-07-30T13:25:09;5.20;;;4.57;;
12792;SDS011;6460;42.684;23.260;2023-07-30T13:27:38;5.70;;;4.80;;
12792;SDS011;6460;42.684;23.260;2023-07-30T13:30:06;5.00;;;4.50;;
12792;SDS011;6460;42.684;23.260;2023-07-30T13:32:34;4.90;;;4.50;;
12792;SDS011;6460;42.684;23.260;2023-07-30T13:35:01;5.00;;;4.60;;
12792;SDS011;6460;42.684;23.260;2023-07-30T13:37:29;4.70;;;4.00;;
12792;SDS011;6460;42.684;23.260;2023-07-30T13:39:56;7.07;;;5.30;;
12792;SDS011;6460;42.684;23.260;2023-07-30T13:42:23;5.40;;;4.93;;
12792;SDS011;6460;42.684;23.260;2023-07-30T13:44:52;4.53;;;4.13;;
12792;SDS011;6460;42.684;23.260;2023-07-30T13:47:20;4.77;;;4.37;;
12792;SDS011;6460;42.684;23.260;2023-07-30T13:49:47;4.80;;;4.40;;
12792;SDS011;6460;42.684;23.260;2023-07-30T13:52:14;5.00;;;4.50;;
12792;SDS011;6460;42.684;23.260;2023-07-30T13:54:42;4.90;;;4.50;;
12792;SDS011;6460;42.684;23.260;2023-07-30T13:57:10;4.90;;;4.37;;
12792;SDS011;6460;42.684;23.260;2023-07-30T13:59:37;4.17;;;3.87;;
12792;SDS011;6460;42.684;23.260;2023-07-30T14:02:10;4.83;;;3.70;;
12792;SDS011;6460;42.684;23.260;2023-07-30T14:04:38;5.27;;;4.20;;
12792;SDS011;6460;42.684;23.260;2023-07-30T14:07:06;4.97;;;4.47;;
12792;SDS011;6460;42.684;23.260;2023-07-30T14:09:33;4.90;;;4.50;;
12792;SDS011;6460;42.684;23.260;2023-07-30T14:12:02;4.80;;;4.40;;
12792;SDS011;6460;42.684;23.260;2023-07-30T14:14:29;10.13;;;8.60;;
12792;SDS011;6460;42.684;23.260;2023-07-30T14:16:57;4.87;;;4.40;;
12792;SDS011;6460;42.684;23.260;2023-07-30T14:19:27;4.83;;;4.40;;
12792;SDS011;6460;42.684;23.260;2023-07-30T14:21:55;6.93;;;4.13;;
12792;SDS011;6460;42.684;23.260;2023-07-30T14:24:22;5.43;;;4.30;;
12792;SDS011;6460;42.684;23.260;2023-07-30T14:26:50;4.93;;;4.43;;
12792;SDS011;6460;42.684;23.260;2023-07-30T14:29:16;4.67;;;4.27;;
12792;SDS011;6460;42.684;23.260;2023-07-30T14:31:44;4.87;;;4.10;;
12792;SDS011;6460;42.684;23.260;2023-07-30T14:34:11;4.70;;;4.23;;
12792;SDS011;6460;42.684;23.260;2023-07-30T14:36:40;5.00;;;4.53;;
12792;SDS011;6460;42.684;23.260;2023-07-30T14:39:07;5.30;;;4.30;;
12792;SDS011;6460;42.684;23.260;2023-07-30T14:41:35;4.50;;;4.10;;
12792;SDS011;6460;42.684;23.260;2023-07-30T14:44:02;3.97;;;3.67;;
12792;SDS011;6460;42.684;23.260;2023-07-30T14:46:30;4.60;;;4.20;;
12792;SDS011;6460;42.684;23.260;2023-07-30T14:48:58;4.63;;;4.23;;
12792;SDS011;6460;42.684;23.260;2023-07-30T14:51:25;4.60;;;4.20;;
12792;SDS011;6460;42.684;23.260;2023-07-30T14:53:55;4.50;;;4.10;;
12792;SDS011;6460;42.684;23.260;2023-07-30T14:56:23;4.97;;;4.57;;